createdAt,value
2023-01-10T00:01:56.999Z,8.96
2023-01-10T00:04:34.965Z,8.93
2023-01-10T00:07:18.103Z,8.90
2023-01-10T00:10:14.548Z,8.90
2023-01-10T00:13:27.013Z,8.92
2023-01-10T00:16:11.993Z,8.94
2023-01-10T00:18:46.020Z,8.96
2023-01-10T00:21:19.949Z,8.95
2023-01-10T00:24:19.274Z,8.93
2023-01-10T00:27:04.578Z,8.90
2023-01-10T00:30:01.878Z,8.89
2023-01-10T00:32:38.662Z,8.90
2023-01-10T00:35:14.413Z,8.91
2023-01-10T00:37:52.444Z,8.89
2023-01-10T00:40:26.815Z,8.86
2023-01-10T00:43:19.581Z,8.87
2023-01-10T00:46:13.768Z,8.89
2023-01-10T00:48:47.700Z,8.92
2023-01-10T00:51:25.758Z,8.96
2023-01-10T00:54:00.148Z,8.97
2023-01-10T00:56:47.966Z,8.98
2023-01-10T00:59:41.280Z,8.98
2023-01-10T01:02:35.664Z,8.96
2023-01-10T01:05:30.359Z,8.98
2023-01-10T01:08:24.543Z,9.01
2023-01-10T01:11:18.670Z,9.03
2023-01-10T01:14:13.004Z,9.05
2023-01-10T01:17:07.529Z,9.06
2023-01-10T01:19:51.774Z,9.05
2023-01-10T01:22:46.019Z,9.05
2023-01-10T01:25:22.852Z,9.06
2023-01-10T01:27:59.967Z,9.07
2023-01-10T01:30:44.811Z,9.06
2023-01-10T01:33:31.784Z,9.06
2023-01-10T01:36:18.244Z,9.09
2023-01-10T01:39:04.184Z,9.11
2023-01-10T01:42:01.182Z,9.13
2023-01-10T01:44:38.136Z,9.14
2023-01-10T01:47:32.358Z,9.14
2023-01-10T01:50:21.488Z,9.14
2023-01-10T01:53:21.373Z,9.13
2023-01-10T01:56:21.376Z,9.13
2023-01-10T01:59:20.662Z,9.16
2023-01-10T02:02:09.334Z,9.18
2023-01-10T02:05:07.506Z,9.19
2023-01-10T02:08:03.774Z,9.20
2023-01-10T02:10:44.083Z,9.20
2023-01-10T02:13:28.016Z,9.20
2023-01-10T02:16:05.426Z,9.21
2023-01-10T02:19:00.445Z,9.23
2023-01-10T02:22:26.299Z,9.23
2023-01-10T02:25:54.381Z,9.22
2023-01-10T02:29:04.015Z,9.20
2023-01-10T02:32:14.927Z,9.19
2023-01-10T02:35:00.024Z,9.17
2023-01-10T02:37:45.677Z,9.16
2023-01-10T02:40:35.987Z,9.17
2023-01-10T02:43:35.116Z,9.20
2023-01-10T02:46:25.662Z,9.20
2023-01-10T02:49:19.835Z,9.20
2023-01-10T02:52:04.953Z,9.19
2023-01-10T02:54:56.242Z,9.19
2023-01-10T02:57:43.454Z,9.19
2023-01-10T03:00:47.089Z,9.18
2023-01-10T03:03:35.870Z,9.15
2023-01-10T03:06:42.011Z,9.11
2023-01-10T03:09:42.847Z,9.11
2023-01-10T03:12:42.592Z,9.12
2023-01-10T03:15:31.924Z,9.12
2023-01-10T03:18:30.210Z,9.11
2023-01-10T03:21:25.669Z,9.12
2023-01-10T03:24:25.902Z,9.11
2023-01-10T03:27:26.240Z,9.11
2023-01-10T03:30:20.578Z,9.11
2023-01-10T03:33:18.369Z,9.14
2023-01-10T03:36:27.260Z,9.15
2023-01-10T03:39:14.874Z,9.14
2023-01-10T03:42:14.975Z,9.14
2023-01-10T03:45:16.529Z,9.13
2023-01-10T03:48:13.029Z,9.13
2023-01-10T03:50:48.544Z,9.12
2023-01-10T03:53:43.097Z,9.13
2023-01-10T03:56:47.509Z,9.13
2023-01-10T03:59:42.233Z,9.13
2023-01-10T04:02:16.387Z,9.12
2023-01-10T04:05:12.255Z,9.11
2023-01-10T04:07:57.336Z,9.10
2023-01-10T04:10:53.664Z,9.11
2023-01-10T04:13:47.234Z,9.09
2023-01-10T04:16:24.760Z,9.07
2023-01-10T04:19:09.467Z,9.07
2023-01-10T04:21:43.532Z,9.09
2023-01-10T04:24:37.769Z,9.10
2023-01-10T04:27:15.163Z,9.08
2023-01-10T04:29:59.787Z,9.09
2023-01-10T04:32:43.994Z,9.08
2023-01-10T04:35:29.066Z,9.08
2023-01-10T04:38:13.217Z,9.08
2023-01-10T04:41:07.307Z,9.10
2023-01-10T04:44:01.613Z,9.11
2023-01-10T04:46:45.964Z,9.12
2023-01-10T04:49:39.837Z,9.11
2023-01-10T04:52:26.540Z,9.10
2023-01-10T04:55:04.131Z,9.11
2023-01-10T04:57:58.416Z,9.12
2023-01-10T05:00:46.592Z,9.12
2023-01-10T05:03:30.971Z,9.12
2023-01-10T05:06:08.272Z,9.12
2023-01-10T05:08:52.614Z,9.13
2023-01-10T05:11:37.070Z,9.12
2023-01-10T05:14:11.013Z,9.12
2023-01-10T05:16:44.695Z,9.13
2023-01-10T05:19:39.282Z,9.15
2023-01-10T05:22:12.721Z,9.14
2023-01-10T05:24:57.240Z,9.16
2023-01-10T05:27:51.220Z,9.17
2023-01-10T05:30:37.963Z,9.18
2023-01-10T05:33:31.927Z,9.19
2023-01-10T05:36:10.234Z,9.19
2023-01-10T05:38:45.477Z,9.19
2023-01-10T05:41:39.922Z,9.18
2023-01-10T05:44:24.554Z,9.17
2023-01-10T05:47:18.993Z,9.17
2023-01-10T05:50:14.234Z,9.16
2023-01-10T05:53:07.894Z,9.17
2023-01-10T05:56:03.561Z,9.19
2023-01-10T05:59:07.857Z,9.21
2023-01-10T06:02:06.019Z,9.20
2023-01-10T06:04:52.484Z,9.19
2023-01-10T06:07:36.564Z,9.19
2023-01-10T06:10:14.421Z,9.18
2023-01-10T06:12:58.761Z,9.18
2023-01-10T06:15:41.948Z,9.18
2023-01-10T06:18:36.043Z,9.19
2023-01-10T06:21:13.528Z,9.18
2023-01-10T06:23:47.421Z,9.18
2023-01-10T06:26:23.386Z,9.15
2023-01-10T06:29:17.270Z,9.15
2023-01-10T06:32:01.851Z,9.15
2023-01-10T06:34:38.233Z,9.16
2023-01-10T06:37:22.870Z,9.14
2023-01-10T06:40:11.870Z,9.12
2023-01-10T06:43:06.635Z,9.12
2023-01-10T06:45:40.719Z,9.12
2023-01-10T06:48:15.155Z,9.11
2023-01-10T06:50:48.780Z,9.12
2023-01-10T06:53:43.546Z,9.14
2023-01-10T06:56:20.578Z,9.16
2023-01-10T06:59:15.116Z,9.16
2023-01-10T07:02:11.743Z,9.16
2023-01-10T07:04:49.739Z,9.14
2023-01-10T07:07:43.871Z,9.14
2023-01-10T07:10:18.385Z,9.13
2023-01-10T07:13:13.127Z,9.14
2023-01-10T07:16:09.722Z,9.14
2023-01-10T07:19:03.754Z,9.13
2023-01-10T07:21:57.952Z,9.10
2023-01-10T07:24:42.193Z,9.09
2023-01-10T07:27:15.987Z,9.09
2023-01-10T07:30:02.017Z,9.09
2023-01-10T07:32:37.580Z,9.10
2023-01-10T07:35:12.425Z,9.13
2023-01-10T07:37:59.616Z,9.14
2023-01-10T07:40:53.960Z,9.12
2023-01-10T07:43:27.807Z,9.11
2023-01-10T07:46:14.472Z,9.11
2023-01-10T07:49:09.045Z,9.12
2023-01-10T07:51:53.226Z,9.13
2023-01-10T07:54:37.383Z,9.15
2023-01-10T07:57:13.746Z,9.14
2023-01-10T08:00:10.949Z,9.13
2023-01-10T08:03:06.641Z,9.13
2023-01-10T08:05:41.213Z,9.12
2023-01-10T08:08:25.284Z,9.12
2023-01-10T08:11:19.702Z,9.12
2023-01-10T08:13:54.083Z,9.12
2023-01-10T08:16:40.779Z,9.13
2023-01-10T08:19:34.793Z,9.11
2023-01-10T08:22:19.408Z,9.08
2023-01-10T08:25:14.209Z,9.07
2023-01-10T08:27:51.892Z,9.08
2023-01-10T08:30:49.010Z,9.08
2023-01-10T08:33:44.492Z,9.08
2023-01-10T08:36:38.830Z,9.07
2023-01-10T08:39:35.478Z,9.06
2023-01-10T08:42:12.403Z,9.06
2023-01-10T08:44:46.982Z,9.04
2023-01-10T08:50:25.354Z,9.05
2023-01-10T08:53:03.427Z,9.08
2023-01-10T08:55:50.249Z,9.09
2023-01-10T08:58:26.683Z,9.09
2023-01-10T09:01:12.293Z,9.09
2023-01-10T09:04:07.112Z,9.09
2023-01-10T09:07:01.421Z,9.11
2023-01-10T09:09:39.914Z,9.12
2023-01-10T09:12:45.793Z,9.15
2023-01-10T09:15:19.919Z,9.16
2023-01-10T09:18:15.887Z,9.15
2023-01-10T09:21:03.395Z,9.16
2023-01-10T09:23:40.372Z,9.16
2023-01-10T09:26:17.763Z,9.17
2023-01-10T09:29:05.168Z,9.19
2023-01-10T09:31:42.879Z,9.20
2023-01-10T09:34:25.337Z,9.22
2023-01-10T09:37:10.443Z,9.24
2023-01-10T09:39:58.679Z,9.26
2023-01-10T09:42:57.490Z,9.26
2023-01-10T09:46:00.639Z,9.30
2023-01-10T09:49:03.211Z,9.33
2023-01-10T09:52:00.037Z,9.36
2023-01-10T09:54:55.423Z,9.36
2023-01-10T09:57:29.805Z,9.37
2023-01-10T10:00:05.451Z,9.41
2023-01-10T10:02:47.308Z,9.44
2023-01-10T10:05:25.575Z,9.45
2023-01-10T10:08:16.773Z,9.46
2023-01-10T10:11:33.520Z,9.49
2023-01-10T10:14:35.502Z,9.51
2023-01-10T10:17:44.007Z,9.52
2023-01-10T10:20:47.347Z,9.54
2023-01-10T10:23:34.512Z,9.55
2023-01-10T10:26:29.989Z,9.60
2023-01-10T10:29:51.410Z,9.66
2023-01-10T10:32:44.829Z,9.71
2023-01-10T10:35:33.853Z,9.72
2023-01-10T10:38:24.085Z,9.74
2023-01-10T10:41:31.987Z,9.76
2023-01-10T10:44:29.523Z,9.77
2023-01-10T10:47:03.819Z,9.74
2023-01-10T10:50:02.929Z,9.73
2023-01-10T10:52:40.434Z,9.73
2023-01-10T10:55:20.292Z,9.73
2023-01-10T10:58:00.370Z,9.70
2023-01-10T11:00:37.786Z,9.69
2023-01-10T11:03:40.847Z,9.64
2023-01-10T11:06:17.777Z,9.61
2023-01-10T11:09:06.255Z,9.61
2023-01-10T11:11:46.102Z,9.60
2023-01-10T11:14:46.373Z,9.60
2023-01-10T11:17:41.974Z,9.59
2023-01-10T11:20:25.115Z,9.59
2023-01-10T11:23:10.959Z,9.57
2023-01-10T11:25:50.497Z,9.56
2023-01-10T11:28:46.190Z,9.55
2023-01-10T11:31:41.257Z,9.56
2023-01-10T11:34:37.868Z,9.55
2023-01-10T11:37:29.455Z,9.56
2023-01-10T11:40:26.108Z,9.57
2023-01-10T11:43:33.466Z,9.56
2023-01-10T11:46:27.800Z,9.54
2023-01-10T11:49:20.393Z,9.52
2023-01-10T11:51:59.315Z,9.53
2023-01-10T11:54:44.864Z,9.53
2023-01-10T11:57:24.366Z,9.53
2023-01-10T12:00:00.606Z,9.55
2023-01-10T12:02:46.846Z,9.57
2023-01-10T12:05:41.433Z,9.54
2023-01-10T12:08:36.986Z,9.52
2023-01-10T12:11:27.589Z,9.52
2023-01-10T12:14:03.441Z,9.54
2023-01-10T12:16:40.237Z,9.55
2023-01-10T12:19:34.088Z,9.57
2023-01-10T12:22:09.316Z,9.57
2023-01-10T12:24:53.598Z,9.58
2023-01-10T12:27:37.767Z,9.57
2023-01-10T12:30:36.611Z,9.58
2023-01-10T12:33:34.861Z,9.58
2023-01-10T12:36:32.574Z,9.60
2023-01-10T12:39:24.852Z,9.63
2023-01-10T12:42:36.104Z,9.64
2023-01-10T12:45:33.213Z,9.66
2023-01-10T12:48:20.075Z,9.66
2023-01-10T12:51:03.717Z,9.67
2023-01-10T12:54:04.008Z,9.68
2023-01-10T12:56:49.353Z,9.66
2023-01-10T12:59:37.730Z,9.67
2023-01-10T13:02:27.254Z,9.70
2023-01-10T13:05:20.690Z,9.73
2023-01-10T13:07:56.411Z,9.75
2023-01-10T13:10:53.529Z,9.72
2023-01-10T13:13:55.740Z,9.69
2023-01-10T13:16:38.444Z,9.68
2023-01-10T13:19:32.622Z,9.68
2023-01-10T13:22:24.985Z,9.68
2023-01-10T13:25:26.538Z,9.68
2023-01-10T13:28:26.176Z,9.65
2023-01-10T13:31:30.377Z,9.63
2023-01-10T13:34:26.816Z,9.61
2023-01-10T13:37:23.687Z,9.56
2023-01-10T13:40:28.497Z,9.53
2023-01-10T13:43:50.138Z,9.50
2023-01-10T13:46:45.854Z,9.46
2023-01-10T13:49:48.584Z,9.44
2023-01-10T13:52:43.102Z,9.39
2023-01-10T13:55:55.166Z,9.37
2023-01-10T13:59:07.310Z,9.36
2023-01-10T14:02:21.388Z,9.33
2023-01-10T14:05:18.037Z,9.30
2023-01-10T14:08:02.829Z,9.29
2023-01-10T14:11:09.162Z,9.28
2023-01-10T14:14:05.059Z,9.25
2023-01-10T14:17:12.399Z,9.24
2023-01-10T14:20:21.234Z,9.23
2023-01-10T14:23:23.114Z,9.24
2023-01-10T14:26:27.779Z,9.25
2023-01-10T14:29:07.837Z,9.26
2023-01-10T14:32:03.344Z,9.25
2023-01-10T14:34:39.523Z,9.22
2023-01-10T14:37:29.723Z,9.17
2023-01-10T14:40:06.050Z,9.15
2023-01-10T14:42:41.791Z,9.11
2023-01-10T14:45:40.404Z,9.08
2023-01-10T14:48:35.662Z,9.04
2023-01-10T14:51:30.796Z,9.00
2023-01-10T14:54:25.791Z,8.94
2023-01-10T14:56:59.874Z,8.90
2023-01-10T14:59:36.508Z,8.89
2023-01-10T15:02:23.191Z,8.86
2023-01-10T15:05:02.768Z,8.85
2023-01-10T15:07:57.853Z,8.83
2023-01-10T15:10:42.588Z,8.79
2023-01-10T15:13:50.496Z,8.74
2023-01-10T15:16:37.414Z,8.70
2023-01-10T15:19:19.837Z,8.66
2023-01-10T15:22:30.626Z,8.64
2023-01-10T15:25:27.379Z,8.63
2023-01-10T15:28:22.181Z,8.61
2023-01-10T15:31:17.926Z,8.57
2023-01-10T15:34:12.312Z,8.52
2023-01-10T15:37:03.362Z,8.47
2023-01-10T15:39:59.077Z,8.45
2023-01-10T15:42:53.915Z,8.43
2023-01-10T15:45:40.453Z,8.43
2023-01-10T15:48:37.492Z,8.42
2023-01-10T15:51:35.632Z,8.42
2023-01-10T15:54:34.859Z,8.38
2023-01-10T15:57:33.448Z,8.32
2023-01-10T16:00:27.564Z,8.27
2023-01-10T16:03:01.605Z,8.23
2023-01-10T16:05:59.518Z,8.21
2023-01-10T16:08:49.969Z,8.22
2023-01-10T16:11:50.612Z,8.22
2023-01-10T16:14:38.283Z,8.21
2023-01-10T16:17:14.993Z,8.20
2023-01-10T16:19:51.717Z,8.16
2023-01-10T16:22:47.550Z,8.13
2023-01-10T16:25:45.951Z,8.12
2023-01-10T16:28:38.582Z,8.12
2023-01-10T16:31:32.742Z,8.09
2023-01-10T16:34:27.386Z,8.05
2023-01-10T16:37:21.762Z,8.00
2023-01-10T16:40:20.340Z,7.96
2023-01-10T16:43:15.102Z,7.93
2023-01-10T16:46:09.539Z,7.90
2023-01-10T16:49:06.936Z,7.87
2023-01-10T16:51:42.500Z,7.86
2023-01-10T16:54:28.085Z,7.86
2023-01-10T16:57:01.874Z,7.84
2023-01-10T16:59:35.691Z,7.83
2023-01-10T17:02:22.228Z,7.81
2023-01-10T17:05:08.544Z,7.79
2023-01-10T17:07:42.500Z,7.76
2023-01-10T17:10:16.719Z,7.73
2023-01-10T17:12:55.816Z,7.68
2023-01-10T17:15:40.465Z,7.64
2023-01-10T17:18:14.619Z,7.58
2023-01-10T17:21:13.021Z,7.54
2023-01-10T17:23:48.152Z,7.51
2023-01-10T17:26:35.382Z,7.49
2023-01-10T17:29:30.685Z,7.47
2023-01-10T17:32:25.127Z,7.47
2023-01-10T17:35:19.385Z,7.47
2023-01-10T17:38:16.880Z,7.46
2023-01-10T17:41:11.743Z,7.47
2023-01-10T17:44:06.151Z,7.47
2023-01-10T17:46:54.971Z,7.49
2023-01-10T17:49:39.129Z,7.51
2023-01-10T17:52:33.506Z,7.54
2023-01-10T17:55:09.256Z,7.55
2023-01-10T17:57:53.467Z,7.56
2023-01-10T18:00:49.187Z,7.56
2023-01-10T18:03:34.802Z,7.54
2023-01-10T18:06:22.827Z,7.54
2023-01-10T18:09:08.705Z,7.54
2023-01-10T18:12:03.225Z,7.54
2023-01-10T18:14:40.402Z,7.55
2023-01-10T18:17:15.094Z,7.57
2023-01-10T18:19:49.710Z,7.57
2023-01-10T18:23:01.701Z,7.56
2023-01-10T18:25:37.680Z,7.53
2023-01-10T18:28:39.021Z,7.47
2023-01-10T18:31:28.605Z,7.46
2023-01-10T18:34:23.626Z,7.44
2023-01-10T18:37:19.356Z,7.44
2023-01-10T18:40:16.346Z,7.44
2023-01-10T18:43:02.461Z,7.42
2023-01-10T18:45:39.147Z,7.40
2023-01-10T18:48:19.143Z,7.39
2023-01-10T18:51:06.661Z,7.40
2023-01-10T18:54:01.626Z,7.40
2023-01-10T18:56:51.488Z,7.41
2023-01-10T18:59:26.128Z,7.43
2023-01-10T19:02:02.631Z,7.44
2023-01-10T19:04:55.948Z,7.45
2023-01-10T19:07:34.763Z,7.43
2023-01-10T19:10:12.505Z,7.43
2023-01-10T19:12:47.992Z,7.43
2023-01-10T19:15:29.334Z,7.43
2023-01-10T19:18:15.351Z,7.44
2023-01-10T19:21:05.422Z,7.43
2023-01-10T19:23:41.640Z,7.41
2023-01-10T19:26:17.512Z,7.40
2023-01-10T19:28:58.222Z,7.37
2023-01-10T19:31:37.830Z,7.31
2023-01-10T19:34:25.374Z,7.26
2023-01-10T19:37:21.888Z,7.22
2023-01-10T19:40:17.832Z,7.21
2023-01-10T19:42:54.582Z,7.19
2023-01-10T19:45:49.690Z,7.16
2023-01-10T19:48:45.136Z,7.06
2023-01-10T19:51:31.080Z,6.98
2023-01-10T19:54:27.280Z,6.90
2023-01-10T19:57:03.662Z,6.84
2023-01-10T19:59:41.998Z,6.78
2023-01-10T20:02:37.140Z,6.71
2023-01-10T20:05:12.660Z,6.61
2023-01-10T20:08:09.784Z,6.53
2023-01-10T20:11:01.044Z,6.45
2023-01-10T20:13:56.286Z,6.37
2023-01-10T20:16:42.419Z,6.29
2023-01-10T20:19:38.154Z,6.22
2023-01-10T20:22:13.074Z,6.18
2023-01-10T20:24:47.867Z,6.17
2023-01-10T20:27:33.741Z,6.19
2023-01-10T20:30:09.837Z,6.20
2023-01-10T20:32:47.232Z,6.22
2023-01-10T20:35:26.431Z,6.27
2023-01-10T20:38:21.846Z,6.30
2023-01-10T20:41:18.479Z,6.31
2023-01-10T20:44:04.270Z,6.31
2023-01-10T20:46:39.291Z,6.32
2023-01-10T20:49:26.102Z,6.29
2023-01-10T20:52:00.933Z,6.28
2023-01-10T20:54:39.517Z,6.27
2023-01-10T20:57:17.563Z,6.28
2023-01-10T21:00:14.572Z,6.26
2023-01-10T21:02:58.217Z,6.23
2023-01-10T21:05:51.143Z,6.18
2023-01-10T21:08:46.228Z,6.15
2023-01-10T21:11:21.619Z,6.11
2023-01-10T21:14:16.362Z,6.10
2023-01-10T21:16:59.103Z,6.12
2023-01-10T21:19:42.884Z,6.14
2023-01-10T21:22:20.269Z,6.10
2023-01-10T21:25:05.526Z,6.10
2023-01-10T21:27:59.584Z,6.09
2023-01-10T21:30:47.369Z,6.10
2023-01-10T21:33:41.350Z,6.12
2023-01-10T21:36:35.556Z,6.17
2023-01-10T21:39:20.177Z,6.20
2023-01-10T21:42:12.191Z,6.22
2023-01-10T21:45:07.477Z,6.27
2023-01-10T21:48:01.983Z,6.28
2023-01-10T21:50:56.180Z,6.28
2023-01-10T21:53:34.302Z,6.26
2023-01-10T21:56:19.687Z,6.25
2023-01-10T21:59:14.106Z,6.26
2023-01-10T22:01:51.718Z,6.24
2023-01-10T22:04:28.789Z,6.25
2023-01-10T22:07:02.759Z,6.26
2023-01-10T22:09:57.866Z,6.24
2023-01-10T22:12:52.095Z,6.19
2023-01-10T22:15:29.421Z,6.19
2023-01-10T22:18:17.739Z,6.20
2023-01-10T22:21:11.775Z,6.20
2023-01-10T22:24:06.137Z,6.20
2023-01-10T22:26:42.976Z,6.21
2023-01-10T22:29:17.158Z,6.23
2023-01-10T22:32:11.524Z,6.25
2023-01-10T22:34:45.236Z,6.27
2023-01-10T22:37:29.797Z,6.31
2023-01-10T22:40:24.412Z,6.34
2023-01-10T22:43:00.621Z,6.32
2023-01-10T22:45:34.696Z,6.33
2023-01-10T22:48:08.935Z,6.36
2023-01-10T22:50:51.153Z,6.36
2023-01-10T22:53:35.959Z,6.36
2023-01-10T22:56:30.340Z,6.38
2023-01-10T23:02:33.503Z,6.37
2023-01-10T23:05:18.937Z,6.36
2023-01-10T23:07:55.859Z,6.35
2023-01-10T23:10:51.049Z,6.37
2023-01-10T23:13:25.535Z,6.37
2023-01-10T23:16:15.975Z,6.35
2023-01-10T23:18:52.649Z,6.36
2023-01-10T23:21:26.489Z,6.36
2023-01-10T23:24:21.101Z,6.37
2023-01-10T23:26:55.189Z,6.43
2023-01-10T23:29:29.965Z,6.45
2023-01-10T23:32:07.461Z,6.43
2023-01-10T23:34:41.262Z,6.38
2023-01-10T23:37:26.199Z,6.38
2023-01-10T23:40:12.480Z,6.40
2023-01-10T23:42:57.586Z,6.41
2023-01-10T23:45:52.400Z,6.43
2023-01-10T23:48:26.703Z,6.46
2023-01-10T23:51:03.442Z,6.48
2023-01-10T23:53:51.679Z,6.49
2023-01-10T23:56:45.937Z,6.47
2023-01-10T23:59:29.740Z,6.45
